Time;durP1;ratioP1;P1;durP2;ratioP2;P2;SDS_P1;SDS_P2;PMS_P1;PMS_P2;Temp;Humidity;BMP_temperature;BMP_pressure;BME280_temperature;BME280_humidity;BME280_pressure;Samples;Min_cycle;Max_cycle;Signal;HPM_P1;HPM_P2
2022/10/29 00:00:14;;;;;;;19.48;4.68;;;;;;;;;;5142225;27;20047;-63
2022/10/29 00:02:40;;;;;;;17.33;4.40;;;;;;;;;;5133951;27;20047;-63
2022/10/29 00:05:06;;;;;;;11.73;4.50;;;;;;;;;;5140410;27;20455;-64
2022/10/29 00:07:33;;;;;;;16.63;5.07;;;;;;;;;;5129357;27;20048;-63
2022/10/29 00:09:59;;;;;;;12.43;4.18;;;;;;;;;;5121006;27;20059;-64
2022/10/29 00:12:26;;;;;;;15.98;4.68;;;;;;;;;;5126113;27;20067;-64
2022/10/29 00:14:52;;;;;;;17.25;5.10;;;;;;;;;;5130931;27;20055;-62
2022/10/29 00:17:18;;;;;;;14.32;5.40;;;;;;;;;;5136845;27;20601;-64
2022/10/29 00:19:45;;;;;;;17.63;4.38;;;;;;;;;;5133727;27;20055;-64
2022/10/29 00:22:11;;;;;;;17.35;3.95;;;;;;;;;;5121922;27;20047;-64
2022/10/29 00:24:37;;;;;;;16.48;4.82;;;;;;;;;;5127008;27;20050;-63
2022/10/29 00:27:03;;;;;;;16.17;4.60;;;;;;;;;;5143790;27;20059;-63
2022/10/29 00:29:30;;;;;;;16.58;4.55;;;;;;;;;;5125873;27;20051;-63
2022/10/29 00:31:56;;;;;;;18.08;4.03;;;;;;;;;;5137242;27;20052;-63
2022/10/29 00:34:23;;;;;;;15.30;3.97;;;;;;;;;;5125247;27;20051;-64
2022/10/29 00:36:49;;;;;;;22.88;5.10;;;;;;;;;;5132221;27;20066;-64
2022/10/29 00:39:16;;;;;;;14.23;4.95;;;;;;;;;;5123810;27;20586;-64
2022/10/29 00:41:43;;;;;;;16.42;5.07;;;;;;;;;;5135261;27;20085;-65
2022/10/29 00:44:21;;;;;;;10.77;4.40;;;;;;;;;;5135411;27;20116;-65
2022/10/29 00:47:01;;;;;;;14.50;4.00;;;;;;;;;;5140046;27;20059;-64
2022/10/29 00:49:28;;;;;;;18.30;3.90;;;;;;;;;;5130695;27;20062;-65
2022/10/29 00:51:55;;;;;;;16.08;4.75;;;;;;;;;;5128923;27;20054;-64
2022/10/29 00:54:22;;;;;;;19.25;4.60;;;;;;;;;;5124292;27;20051;-63
2022/10/29 00:56:51;;;;;;;11.20;4.15;;;;;;;;;;5129179;27;20058;-63
2022/10/29 00:59:17;;;;;;;12.27;5.00;;;;;;;;;;5139364;27;20478;-65
2022/10/29 01:01:45;;;;;;;19.85;4.75;;;;;;;;;;5133191;27;20089;-64
2022/10/29 01:04:12;;;;;;;10.25;4.15;;;;;;;;;;5129898;27;20054;-64
2022/10/29 01:06:41;;;;;;;15.15;5.68;;;;;;;;;;5122973;27;20773;-65
2022/10/29 01:09:07;;;;;;;17.73;5.55;;;;;;;;;;5133517;27;20464;-66
2022/10/29 01:11:48;;;;;;;20.42;6.53;;;;;;;;;;5130270;27;20070;-65
2022/10/29 01:14:18;;;;;;;17.63;4.57;;;;;;;;;;5121181;27;20516;-64
2022/10/29 01:16:47;;;;;;;16.50;4.90;;;;;;;;;;5122413;27;20055;-64
2022/10/29 01:19:16;;;;;;;12.07;4.70;;;;;;;;;;5125198;27;20052;-63
2022/10/29 01:21:44;;;;;;;15.77;6.13;;;;;;;;;;5122690;27;20051;-63
2022/10/29 01:24:10;;;;;;;14.18;4.55;;;;;;;;;;5132933;27;20039;-63
2022/10/29 01:26:57;;;;;;;12.20;4.47;;;;;;;;;;5145860;27;20120;-62
2022/10/29 01:29:42;;;;;;;11.18;4.75;;;;;;;;;;5146401;27;20157;-62
2022/10/29 01:32:14;;;;;;;16.65;4.90;;;;;;;;;;5138611;27;20055;-63
2022/10/29 01:34:55;;;;;;;12.48;5.07;;;;;;;;;;5140448;27;20461;-64
2022/10/29 01:37:34;;;;;;;17.77;5.38;;;;;;;;;;5145838;27;20569;-62
2022/10/29 01:40:03;;;;;;;16.88;5.18;;;;;;;;;;5136908;27;20046;-64
2022/10/29 01:42:43;;;;;;;12.45;4.78;;;;;;;;;;5129138;27;20348;-64
2022/10/29 01:45:16;;;;;;;15.95;4.85;;;;;;;;;;5142774;27;20359;-64
2022/10/29 01:47:45;;;;;;;16.60;4.53;;;;;;;;;;5135013;27;20047;-64
2022/10/29 01:50:14;;;;;;;16.08;5.28;;;;;;;;;;5129435;27;20126;-64
2022/10/29 01:52:41;;;;;;;13.48;5.07;;;;;;;;;;5140821;27;20054;-63
2022/10/29 01:55:07;;;;;;;24.63;5.43;;;;;;;;;;5141019;27;20051;-63
2022/10/29 01:57:35;;;;;;;18.17;4.47;;;;;;;;;;5124686;27;20051;-63
2022/10/29 02:00:06;;;;;;;13.52;5.03;;;;;;;;;;5124586;27;20054;-63
2022/10/29 02:02:43;;;;;;;18.75;7.10;;;;;;;;;;5139270;27;20044;-62
2022/10/29 02:05:32;;;;;;;14.48;5.05;;;;;;;;;;5124665;27;20059;-64
2022/10/29 02:08:01;;;;;;;16.30;5.45;;;;;;;;;;5131442;27;20051;-63
2022/10/29 02:10:32;;;;;;;15.35;4.20;;;;;;;;;;5135696;27;20055;-64
2022/10/29 02:12:59;;;;;;;11.95;4.65;;;;;;;;;;5135426;27;20537;-63
2022/10/29 02:15:34;;;;;;;14.50;6.00;;;;;;;;;;5144518;27;20077;-63
2022/10/29 02:18:01;;;;;;;17.08;5.03;;;;;;;;;;5145733;27;20043;-64
2022/10/29 02:20:27;;;;;;;17.15;5.80;;;;;;;;;;5142501;27;20527;-63
2022/10/29 02:22:54;;;;;;;18.63;4.80;;;;;;;;;;5129664;27;20070;-63
2022/10/29 02:25:20;;;;;;;14.48;4.88;;;;;;;;;;5127484;27;20048;-63
2022/10/29 02:27:46;;;;;;;14.27;4.97;;;;;;;;;;5136562;27;20179;-63
2022/10/29 02:30:13;;;;;;;10.15;5.00;;;;;;;;;;5127092;27;20418;-63
2022/10/29 02:32:39;;;;;;;15.20;5.10;;;;;;;;;;5130246;27;20058;-63
2022/10/29 02:35:06;;;;;;;19.02;5.32;;;;;;;;;;5132539;27;20047;-63
2022/10/29 02:37:32;;;;;;;15.35;6.40;;;;;;;;;;5130657;27;20055;-62
2022/10/29 02:39:58;;;;;;;21.08;6.70;;;;;;;;;;5130982;27;20078;-62
2022/10/29 02:42:25;;;;;;;30.40;8.35;;;;;;;;;;5124135;27;20052;-63
2022/10/29 02:44:51;;;;;;;15.48;6.78;;;;;;;;;;5134132;27;20054;-64
2022/10/29 02:47:17;;;;;;;18.13;7.25;;;;;;;;;;5130176;27;20422;-64
2022/10/29 02:49:44;;;;;;;10.90;6.05;;;;;;;;;;5127699;27;20544;-62
2022/10/29 02:52:10;;;;;;;11.70;6.95;;;;;;;;;;5129613;27;20056;-63
2022/10/29 02:54:38;;;;;;;14.98;6.90;;;;;;;;;;5133921;27;20051;-63
2022/10/29 02:57:04;;;;;;;12.82;7.72;;;;;;;;;;5140527;27;20051;-65
2022/10/29 02:59:30;;;;;;;13.60;7.57;;;;;;;;;;5134135;27;20059;-63
2022/10/29 03:01:57;;;;;;;12.15;7.60;;;;;;;;;;5132171;27;20075;-64
2022/10/29 03:04:23;;;;;;;18.17;8.30;;;;;;;;;;5129192;27;20055;-64
2022/10/29 03:06:49;;;;;;;17.38;8.63;;;;;;;;;;5124024;27;20047;-65
2022/10/29 03:09:16;;;;;;;24.60;8.35;;;;;;;;;;5123172;27;20050;-64
2022/10/29 03:11:42;;;;;;;21.08;8.18;;;;;;;;;;5124903;27;20047;-64
2022/10/29 03:14:09;;;;;;;23.95;8.40;;;;;;;;;;5135718;27;20055;-63
2022/10/29 03:16:35;;;;;;;39.78;8.40;;;;;;;;;;5123484;27;20518;-63
2022/10/29 03:19:01;;;;;;;15.70;8.20;;;;;;;;;;5137243;27;20082;-62
2022/10/29 03:21:28;;;;;;;13.48;7.28;;;;;;;;;;5122827;27;20123;-62
2022/10/29 03:23:54;;;;;;;16.25;7.93;;;;;;;;;;5127719;27;20051;-63
2022/10/29 03:26:20;;;;;;;18.00;8.23;;;;;;;;;;5121553;27;20058;-64
2022/10/29 03:28:47;;;;;;;20.23;8.23;;;;;;;;;;5127389;27;20044;-63
2022/10/29 03:31:13;;;;;;;18.13;9.35;;;;;;;;;;5123026;27;20051;-63
2022/10/29 03:33:40;;;;;;;47.33;9.38;;;;;;;;;;5132102;27;20051;-64
2022/10/29 03:36:06;;;;;;;32.25;9.48;;;;;;;;;;5124415;27;20105;-64
2022/10/29 03:38:33;;;;;;;29.63;9.02;;;;;;;;;;5121448;27;20544;-65
2022/10/29 03:41:00;;;;;;;21.20;8.55;;;;;;;;;;5123127;27;20047;-64
2022/10/29 03:43:26;;;;;;;14.88;8.45;;;;;;;;;;5123640;27;20044;-63
2022/10/29 03:45:53;;;;;;;14.90;8.63;;;;;;;;;;5123184;27;20078;-63
2022/10/29 03:48:20;;;;;;;22.35;9.82;;;;;;;;;;5129240;27;20052;-63
2022/10/29 03:50:57;;;;;;;13.38;8.00;;;;;;;;;;5122713;27;20055;-63
2022/10/29 03:53:24;;;;;;;16.20;8.20;;;;;;;;;;5123228;27;20544;-63
2022/10/29 03:55:51;;;;;;;14.43;8.15;;;;;;;;;;5143498;27;20047;-62
2022/10/29 03:58:17;;;;;;;15.05;8.25;;;;;;;;;;5121883;27;20059;-63
2022/10/29 04:00:51;;;;;;;12.05;8.23;;;;;;;;;;5122334;27;20051;-62
2022/10/29 04:03:17;;;;;;;15.57;7.75;;;;;;;;;;5123407;27;20051;-63
2022/10/29 04:05:44;;;;;;;16.15;8.68;;;;;;;;;;5122715;27;20145;-63
2022/10/29 04:08:10;;;;;;;18.58;8.10;;;;;;;;;;5122330;27;20550;-63
2022/10/29 04:10:36;;;;;;;11.85;8.30;;;;;;;;;;5139147;27;20444;-63
2022/10/29 04:13:03;;;;;;;14.98;7.93;;;;;;;;;;5133571;27;20059;-62
2022/10/29 04:15:29;;;;;;;10.55;7.68;;;;;;;;;;5141585;27;20059;-63
2022/10/29 04:17:55;;;;;;;13.73;7.80;;;;;;;;;;5136805;27;20062;-63
2022/10/29 04:20:22;;;;;;;22.65;8.82;;;;;;;;;;5124585;27;20083;-64
2022/10/29 04:23:09;;;;;;;9.80;7.70;;;;;;;;;;5134115;27;20044;-63
2022/10/29 04:25:56;;;;;;;12.52;7.45;;;;;;;;;;5135540;27;20051;-63
2022/10/29 04:28:42;;;;;;;10.82;8.52;;;;;;;;;;5124252;27;20056;-63
2022/10/29 04:31:10;;;;;;;10.75;7.90;;;;;;;;;;5124679;27;20047;-64
2022/10/29 04:33:36;;;;;;;11.50;8.55;;;;;;;;;;5133906;27;20112;-64
2022/10/29 04:36:03;;;;;;;10.57;8.30;;;;;;;;;;5139299;27;20051;-63
2022/10/29 04:38:30;;;;;;;11.23;8.40;;;;;;;;;;5136672;27;21329;-63
2022/10/29 04:40:57;;;;;;;11.43;7.93;;;;;;;;;;5134486;27;20082;-63
2022/10/29 04:43:24;;;;;;;11.25;8.30;;;;;;;;;;5134511;27;20050;-63
2022/10/29 04:45:51;;;;;;;10.90;8.20;;;;;;;;;;5122711;27;20109;-63
2022/10/29 04:48:18;;;;;;;10.52;8.13;;;;;;;;;;5137813;27;20195;-65
2022/10/29 04:50:44;;;;;;;12.25;8.98;;;;;;;;;;5131151;27;20043;-64
2022/10/29 04:53:10;;;;;;;13.35;8.90;;;;;;;;;;5128431;27;20681;-65
2022/10/29 04:55:37;;;;;;;11.65;9.38;;;;;;;;;;5141214;27;20074;-62
2022/10/29 04:58:05;;;;;;;14.13;8.98;;;;;;;;;;5146135;27;20059;-62
2022/10/29 05:00:31;;;;;;;12.35;9.40;;;;;;;;;;5133906;27;20052;-62
2022/10/29 05:02:58;;;;;;;14.18;9.90;;;;;;;;;;5125173;27;20067;-62
2022/10/29 05:05:25;;;;;;;11.48;9.15;;;;;;;;;;5142967;27;20541;-62
2022/10/29 05:07:58;;;;;;;14.15;8.50;;;;;;;;;;5143710;27;21198;-64
2022/10/29 05:10:28;;;;;;;10.93;8.25;;;;;;;;;;5127787;27;20052;-62
2022/10/29 05:12:58;;;;;;;12.57;9.10;;;;;;;;;;5135760;27;20055;-62
2022/10/29 05:15:25;;;;;;;12.55;9.23;;;;;;;;;;5131318;27;20051;-63
2022/10/29 05:17:51;;;;;;;17.80;9.40;;;;;;;;;;5127347;27;20055;-63
2022/10/29 05:20:18;;;;;;;11.52;9.23;;;;;;;;;;5127242;27;20043;-64
2022/10/29 05:22:44;;;;;;;17.38;8.50;;;;;;;;;;5131218;27;20051;-64
2022/10/29 05:25:11;;;;;;;17.08;9.18;;;;;;;;;;5134446;27;20558;-62
2022/10/29 05:27:37;;;;;;;11.85;8.93;;;;;;;;;;5139124;27;20051;-63
2022/10/29 05:30:03;;;;;;;11.50;8.55;;;;;;;;;;5139127;27;20047;-63
2022/10/29 05:32:30;;;;;;;14.50;9.95;;;;;;;;;;5131930;27;20503;-64
2022/10/29 05:34:56;;;;;;;14.57;8.32;;;;;;;;;;5131975;27;20063;-65
2022/10/29 05:37:26;;;;;;;12.43;8.95;;;;;;;;;;5123465;27;20097;-65
2022/10/29 05:39:53;;;;;;;10.98;9.23;;;;;;;;;;5134797;27;20051;-64
2022/10/29 05:42:19;;;;;;;13.30;10.07;;;;;;;;;;5125949;27;20055;-65
2022/10/29 05:44:45;;;;;;;12.20;9.20;;;;;;;;;;5126412;27;20515;-65
2022/10/29 05:47:12;;;;;;;10.77;8.95;;;;;;;;;;5124498;27;20051;-64
2022/10/29 05:49:38;;;;;;;14.30;9.90;;;;;;;;;;5134442;27;20048;-64
2022/10/29 05:52:04;;;;;;;15.18;9.75;;;;;;;;;;5132616;27;20055;-64
2022/10/29 05:54:31;;;;;;;16.77;9.57;;;;;;;;;;5145723;27;20054;-63
2022/10/29 05:56:57;;;;;;;13.38;9.10;;;;;;;;;;5134713;27;20134;-65
2022/10/29 05:59:24;;;;;;;15.77;9.65;;;;;;;;;;5144592;27;20047;-65
2022/10/29 06:01:56;;;;;;;14.75;9.30;;;;;;;;;;5129609;27;20058;-64
2022/10/29 06:04:22;;;;;;;17.55;9.57;;;;;;;;;;5136754;27;20081;-63
2022/10/29 06:06:49;;;;;;;18.35;9.20;;;;;;;;;;5133191;27;20047;-65
2022/10/29 06:09:15;;;;;;;13.00;9.18;;;;;;;;;;5140814;27;20654;-64
2022/10/29 06:11:41;;;;;;;12.73;9.55;;;;;;;;;;5126120;27;20051;-63
2022/10/29 06:14:08;;;;;;;13.75;9.57;;;;;;;;;;5135391;27;20078;-64
2022/10/29 06:16:34;;;;;;;15.25;10.10;;;;;;;;;;5127910;27;20051;-64
2022/10/29 06:19:00;;;;;;;14.80;9.85;;;;;;;;;;5130349;27;20051;-64
2022/10/29 06:21:27;;;;;;;17.30;10.43;;;;;;;;;;5131749;27;20051;-63
2022/10/29 06:23:54;;;;;;;13.20;10.32;;;;;;;;;;5127541;27;20102;-63
2022/10/29 06:26:21;;;;;;;14.93;10.65;;;;;;;;;;5124735;27;20508;-63
2022/10/29 06:28:47;;;;;;;16.17;10.50;;;;;;;;;;5136779;27;20517;-63
2022/10/29 06:31:14;;;;;;;17.58;11.30;;;;;;;;;;5123815;27;20058;-63
2022/10/29 06:33:40;;;;;;;14.80;10.27;;;;;;;;;;5135783;27;20059;-62
2022/10/29 06:36:06;;;;;;;14.48;10.13;;;;;;;;;;5134081;27;20085;-63
2022/10/29 06:38:33;;;;;;;15.95;11.38;;;;;;;;;;5126025;27;20054;-63
2022/10/29 06:40:59;;;;;;;16.45;10.57;;;;;;;;;;5124551;27;20047;-62
2022/10/29 06:43:25;;;;;;;18.38;11.07;;;;;;;;;;5124079;27;20051;-64
2022/10/29 06:45:52;;;;;;;15.25;10.32;;;;;;;;;;5124449;27;20057;-65
2022/10/29 06:48:18;;;;;;;21.67;11.00;;;;;;;;;;5137546;27;20048;-63
2022/10/29 06:50:48;;;;;;;16.73;11.30;;;;;;;;;;5145036;27;20047;-62
2022/10/29 06:53:15;;;;;;;15.52;11.48;;;;;;;;;;5125754;27;20052;-64
2022/10/29 06:55:41;;;;;;;16.92;10.82;;;;;;;;;;5127156;27;20051;-63
2022/10/29 06:58:11;;;;;;;19.10;10.85;;;;;;;;;;5136428;27;20059;-63
2022/10/29 07:00:38;;;;;;;16.52;11.73;;;;;;;;;;5128526;27;20067;-63
2022/10/29 07:03:06;;;;;;;16.52;11.65;;;;;;;;;;5123867;27;20050;-64
2022/10/29 07:05:32;;;;;;;20.00;12.98;;;;;;;;;;5125644;27;20051;-63
2022/10/29 07:07:59;;;;;;;20.67;11.98;;;;;;;;;;5138831;27;20104;-63
2022/10/29 07:10:27;;;;;;;23.02;12.80;;;;;;;;;;5133253;27;20052;-63
2022/10/29 07:12:54;;;;;;;22.50;12.95;;;;;;;;;;5129942;27;20076;-64
2022/10/29 07:15:20;;;;;;;19.20;13.20;;;;;;;;;;5123364;27;20514;-62
2022/10/29 07:18:03;;;;;;;23.65;13.65;;;;;;;;;;5130358;27;20051;-64
2022/10/29 07:20:31;;;;;;;22.50;13.98;;;;;;;;;;5127454;27;21042;-63
2022/10/29 07:22:59;;;;;;;24.77;14.32;;;;;;;;;;5125899;27;20050;-64
2022/10/29 07:25:25;;;;;;;21.45;14.00;;;;;;;;;;5130591;27;20051;-65
2022/10/29 07:27:52;;;;;;;22.65;13.05;;;;;;;;;;5138348;27;20143;-66
2022/10/29 07:30:19;;;;;;;22.90;13.20;;;;;;;;;;5140808;27;20124;-63
2022/10/29 07:32:46;;;;;;;20.55;14.77;;;;;;;;;;5138398;27;20512;-62
2022/10/29 07:35:12;;;;;;;23.80;15.65;;;;;;;;;;5142636;27;20428;-64
2022/10/29 07:37:39;;;;;;;25.60;14.98;;;;;;;;;;5125779;27;20086;-63
2022/10/29 07:40:05;;;;;;;25.27;15.52;;;;;;;;;;5129574;27;20516;-63
2022/10/29 07:42:32;;;;;;;20.63;14.43;;;;;;;;;;5123352;27;20052;-63
2022/10/29 07:44:58;;;;;;;26.05;15.13;;;;;;;;;;5144035;27;20062;-65
2022/10/29 07:47:24;;;;;;;53.03;16.88;;;;;;;;;;5142548;27;20128;-64
2022/10/29 07:49:51;;;;;;;33.83;17.65;;;;;;;;;;5142874;27;20055;-65
2022/10/29 07:52:17;;;;;;;24.65;13.60;;;;;;;;;;5131906;27;20051;-64
2022/10/29 07:54:43;;;;;;;33.90;14.70;;;;;;;;;;5143557;27;20059;-63
2022/10/29 07:57:10;;;;;;;34.70;15.30;;;;;;;;;;5141367;27;20054;-64
2022/10/29 07:59:36;;;;;;;32.58;14.98;;;;;;;;;;5125533;27;20047;-64
2022/10/29 08:02:03;;;;;;;27.92;15.73;;;;;;;;;;5144201;27;20146;-66
2022/10/29 08:04:29;;;;;;;25.50;14.80;;;;;;;;;;5143134;27;20055;-65
2022/10/29 08:06:55;;;;;;;38.47;17.08;;;;;;;;;;5144500;27;20059;-64
2022/10/29 08:09:22;;;;;;;35.42;16.98;;;;;;;;;;5131437;27;20059;-64
2022/10/29 08:11:48;;;;;;;32.28;16.95;;;;;;;;;;5122102;27;20629;-64
2022/10/29 08:14:15;;;;;;;34.35;17.13;;;;;;;;;;5133815;27;20048;-64
2022/10/29 08:16:45;;;;;;;34.42;16.58;;;;;;;;;;5138510;27;20054;-64
2022/10/29 08:19:11;;;;;;;33.40;15.98;;;;;;;;;;5139906;27;20330;-63
2022/10/29 08:21:38;;;;;;;32.13;17.98;;;;;;;;;;5142726;27;20052;-64
2022/10/29 08:24:04;;;;;;;31.48;17.55;;;;;;;;;;5142507;27;20048;-63
2022/10/29 08:26:32;;;;;;;39.90;17.75;;;;;;;;;;5136673;27;20051;-65
2022/10/29 08:28:58;;;;;;;42.22;19.45;;;;;;;;;;5137905;27;20051;-62
2022/10/29 08:31:24;;;;;;;42.58;18.45;;;;;;;;;;5137321;27;20050;-64
2022/10/29 08:33:51;;;;;;;38.85;18.85;;;;;;;;;;5146963;27;20047;-64
2022/10/29 08:36:17;;;;;;;39.33;20.15;;;;;;;;;;5138050;27;20055;-63
2022/10/29 08:38:45;;;;;;;35.17;18.15;;;;;;;;;;5126673;27;20051;-64
2022/10/29 08:41:17;;;;;;;29.40;17.48;;;;;;;;;;5125545;27;20395;-63
2022/10/29 08:43:58;;;;;;;38.40;17.67;;;;;;;;;;5126672;27;20385;-64
2022/10/29 08:46:45;;;;;;;31.58;18.38;;;;;;;;;;5125515;27;20055;-63
2022/10/29 08:49:32;;;;;;;33.65;19.55;;;;;;;;;;5132514;27;20544;-64
2022/10/29 08:52:15;;;;;;;29.00;17.95;;;;;;;;;;5119997;27;20055;-64
2022/10/29 08:54:43;;;;;;;32.70;18.55;;;;;;;;;;5129075;27;20079;-64
2022/10/29 08:57:13;;;;;;;32.50;16.52;;;;;;;;;;5145702;27;20521;-65
2022/10/29 08:59:42;;;;;;;29.48;16.67;;;;;;;;;;5143320;27;20081;-64
2022/10/29 09:02:17;;;;;;;32.13;17.33;;;;;;;;;;5140695;27;20055;-66
2022/10/29 09:04:44;;;;;;;36.38;18.10;;;;;;;;;;5133158;27;20059;-65
2022/10/29 09:07:22;;;;;;;28.30;16.38;;;;;;;;;;5125635;27;20075;-65
2022/10/29 09:09:54;;;;;;;37.35;17.33;;;;;;;;;;5145411;27;20047;-64
2022/10/29 09:12:40;;;;;;;26.63;16.40;;;;;;;;;;5146928;27;20811;-65
2022/10/29 09:15:25;;;;;;;28.92;16.70;;;;;;;;;;5130111;27;20055;-64
2022/10/29 09:18:15;;;;;;;25.37;16.60;;;;;;;;;;5133501;27;20539;-64
2022/10/29 09:21:05;;;;;;;26.33;15.63;;;;;;;;;;5118086;27;20543;-65
2022/10/29 09:23:49;;;;;;;31.02;16.25;;;;;;;;;;5129579;27;20078;-63
2022/10/29 09:26:21;;;;;;;27.30;14.82;;;;;;;;;;5128246;27;20496;-64
2022/10/29 09:28:58;;;;;;;23.58;15.00;;;;;;;;;;5125506;27;20056;-63
2022/10/29 09:31:24;;;;;;;29.02;16.10;;;;;;;;;;5124782;27;20043;-64
2022/10/29 09:33:52;;;;;;;25.63;15.57;;;;;;;;;;5125898;27;20060;-64
2022/10/29 09:36:24;;;;;;;27.33;15.52;;;;;;;;;;5127144;27;20885;-64
2022/10/29 09:38:55;;;;;;;84.85;23.77;;;;;;;;;;5125209;27;20059;-64
2022/10/29 09:41:25;;;;;;;29.30;15.32;;;;;;;;;;5126985;27;20044;-64
2022/10/29 09:43:55;;;;;;;26.15;15.63;;;;;;;;;;5143580;27;20051;-64
2022/10/29 09:46:38;;;;;;;28.27;15.23;;;;;;;;;;5138934;27;20055;-64
2022/10/29 09:49:07;;;;;;;24.80;14.85;;;;;;;;;;5146430;27;20149;-64
2022/10/29 09:51:46;;;;;;;26.58;15.30;;;;;;;;;;5146050;27;20492;-63
2022/10/29 09:54:12;;;;;;;25.70;14.65;;;;;;;;;;5134103;27;20122;-63
2022/10/29 09:56:41;;;;;;;27.65;14.50;;;;;;;;;;5125086;27;20051;-64
2022/10/29 09:59:43;;;;;;;26.92;15.23;;;;;;;;;;5124164;27;20131;-64
2022/10/29 10:02:27;;;;;;;25.35;13.85;;;;;;;;;;5050528;28;20224;-64
2022/10/29 10:04:55;;;;;;;24.77;13.93;;;;;;;;;;5059719;28;20052;-64
2022/10/29 10:07:22;;;;;;;23.88;14.43;;;;;;;;;;5060345;28;20076;-64
2022/10/29 10:09:58;;;;;;;22.25;13.77;;;;;;;;;;5060677;28;20096;-64
2022/10/29 10:12:42;;;;;;;31.70;14.65;;;;;;;;;;5058638;28;20045;-64
2022/10/29 10:15:14;;;;;;;30.98;13.50;;;;;;;;;;5060248;28;20665;-64
2022/10/29 10:17:55;;;;;;;56.65;18.23;;;;;;;;;;5060525;28;20048;-64
2022/10/29 10:20:34;;;;;;;66.32;17.20;;;;;;;;;;5060661;28;20087;-64
2022/10/29 10:23:02;;;;;;;33.15;13.55;;;;;;;;;;5058916;28;20056;-64
2022/10/29 10:25:38;;;;;;;27.30;13.85;;;;;;;;;;5060436;28;20053;-63
2022/10/29 10:28:18;;;;;;;25.63;12.23;;;;;;;;;;5059767;28;20494;-66
2022/10/29 10:31:03;;;;;;;22.27;12.70;;;;;;;;;;5058384;28;20052;-66
2022/10/29 10:33:31;;;;;;;23.35;13.82;;;;;;;;;;5054760;28;20049;-65
2022/10/29 10:36:17;;;;;;;21.45;11.60;;;;;;;;;;5082866;27;20054;-65
2022/10/29 10:38:45;;;;;;;24.27;13.50;;;;;;;;;;5123757;27;20471;-64
2022/10/29 10:41:13;;;;;;;22.55;12.18;;;;;;;;;;5123931;27;20051;-64
2022/10/29 10:43:43;;;;;;;24.65;12.38;;;;;;;;;;5124340;27;20083;-65
2022/10/29 10:46:12;;;;;;;24.50;13.10;;;;;;;;;;5123151;27;20048;-64
2022/10/29 10:48:39;;;;;;;27.85;13.73;;;;;;;;;;5123000;27;20055;-64
2022/10/29 10:51:10;;;;;;;25.38;13.20;;;;;;;;;;5122824;27;20052;-65
2022/10/29 10:53:38;;;;;;;19.95;12.32;;;;;;;;;;5123153;27;20047;-63
2022/10/29 10:56:05;;;;;;;25.67;12.45;;;;;;;;;;5123823;27;20511;-64
2022/10/29 10:58:37;;;;;;;19.20;11.77;;;;;;;;;;5123719;27;20517;-64
2022/10/29 11:01:07;;;;;;;21.33;12.05;;;;;;;;;;5143048;27;20051;-65
2022/10/29 11:04:06;;;;;;;20.80;11.23;;;;;;;;;;5124158;27;20052;-65
2022/10/29 11:06:40;;;;;;;22.60;10.65;;;;;;;;;;5050040;28;20618;-64
2022/10/29 11:09:24;;;;;;;22.50;11.13;;;;;;;;;;5049136;28;20123;-63
2022/10/29 11:11:54;;;;;;;16.75;9.77;;;;;;;;;;5049402;28;20538;-64
2022/10/29 11:14:27;;;;;;;24.42;10.88;;;;;;;;;;5039646;28;20049;-66
2022/10/29 11:16:55;;;;;;;16.23;10.02;;;;;;;;;;5057985;28;20048;-66
2022/10/29 11:19:31;;;;;;;15.05;9.68;;;;;;;;;;5046762;28;20188;-65
2022/10/29 11:22:21;;;;;;;17.15;10.77;;;;;;;;;;5046991;28;20463;-65
2022/10/29 11:24:47;;;;;;;18.17;9.85;;;;;;;;;;5050106;28;20057;-65
2022/10/29 11:27:21;;;;;;;21.25;11.23;;;;;;;;;;5053899;28;20215;-65
2022/10/29 11:29:54;;;;;;;19.75;10.38;;;;;;;;;;5057715;28;20052;-65
2022/10/29 11:32:29;;;;;;;21.05;10.68;;;;;;;;;;5057687;28;20057;-64
2022/10/29 11:34:55;;;;;;;19.15;9.57;;;;;;;;;;5057086;28;20053;-64
2022/10/29 11:37:31;;;;;;;15.25;9.45;;;;;;;;;;5052561;28;20056;-64
2022/10/29 11:40:01;;;;;;;19.85;10.02;;;;;;;;;;5040736;28;20053;-64
2022/10/29 11:42:28;;;;;;;16.75;8.57;;;;;;;;;;5095170;27;20044;-65
2022/10/29 11:44:56;;;;;;;39.47;13.27;;;;;;;;;;5123909;27;20059;-63
2022/10/29 11:47:30;;;;;;;46.45;11.18;;;;;;;;;;5123337;27;20051;-66
2022/10/29 11:50:03;;;;;;;18.50;8.82;;;;;;;;;;5135810;27;20563;-65
2022/10/29 11:52:36;;;;;;;14.98;7.75;;;;;;;;;;5131503;27;20062;-65
2022/10/29 11:55:05;;;;;;;14.43;8.00;;;;;;;;;;5139162;27;20647;-64
2022/10/29 11:57:32;;;;;;;16.15;8.27;;;;;;;;;;5126777;27;20516;-65
2022/10/29 12:00:02;;;;;;;17.70;8.23;;;;;;;;;;5139721;27;20051;-64
2022/10/29 12:02:40;;;;;;;20.00;8.95;;;;;;;;;;5121517;27;20501;-65
2022/10/29 12:05:12;;;;;;;16.88;7.22;;;;;;;;;;5128094;27;20072;-65
2022/10/29 12:07:38;;;;;;;16.23;8.80;;;;;;;;;;5126143;27;20047;-66
2022/10/29 12:10:20;;;;;;;14.20;7.18;;;;;;;;;;5126195;27;20055;-65
2022/10/29 12:12:56;;;;;;;38.03;10.20;;;;;;;;;;5137202;27;20521;-64
2022/10/29 12:15:22;;;;;;;32.05;9.18;;;;;;;;;;5130748;27;20066;-63
2022/10/29 12:17:58;;;;;;;46.38;12.05;;;;;;;;;;5126378;27;20059;-64
2022/10/29 12:20:39;;;;;;;23.90;8.48;;;;;;;;;;5129888;27;20570;-66
2022/10/29 12:23:24;;;;;;;21.90;7.38;;;;;;;;;;5122266;27;20051;-66
2022/10/29 12:26:03;;;;;;;22.95;8.75;;;;;;;;;;5126041;27;20130;-66
2022/10/29 12:28:35;;;;;;;18.85;8.02;;;;;;;;;;5121480;27;20047;-65
2022/10/29 12:31:12;;;;;;;32.03;9.07;;;;;;;;;;5122371;27;20055;-65
2022/10/29 12:33:50;;;;;;;20.00;7.72;;;;;;;;;;5122479;27;20429;-65
2022/10/29 12:36:40;;;;;;;17.95;7.40;;;;;;;;;;5126338;27;20068;-65
2022/10/29 12:39:12;;;;;;;14.82;7.50;;;;;;;;;;5114201;27;20541;-64
2022/10/29 12:41:44;;;;;;;14.80;7.03;;;;;;;;;;5137687;27;20430;-65
2022/10/29 12:44:22;;;;;;;14.40;6.47;;;;;;;;;;5122142;27;20044;-66
2022/10/29 12:47:11;;;;;;;15.43;7.53;;;;;;;;;;5123203;27;20619;-65
2022/10/29 12:49:47;;;;;;;48.10;8.95;;;;;;;;;;5115456;27;20055;-65
2022/10/29 12:52:23;;;;;;;27.60;7.43;;;;;;;;;;5129349;27;20050;-73
2022/10/29 12:54:51;;;;;;;10.13;6.88;;;;;;;;;;5128758;27;20611;-57
2022/10/29 12:57:28;;;;;;;13.70;7.85;;;;;;;;;;5121183;27;20129;-65
2022/10/29 12:59:55;;;;;;;13.95;7.38;;;;;;;;;;5123124;27;20044;-64
2022/10/29 13:02:25;;;;;;;63.40;13.13;;;;;;;;;;5121228;27;20048;-65
2022/10/29 13:05:10;;;;;;;23.13;8.02;;;;;;;;;;5121897;27;20598;-64
2022/10/29 13:07:46;;;;;;;20.83;7.60;;;;;;;;;;5121579;27;20086;-63
2022/10/29 13:10:21;;;;;;;29.75;9.10;;;;;;;;;;5121854;27;20077;-64
2022/10/29 13:12:53;;;;;;;94.03;14.80;;;;;;;;;;5121853;27;20048;-64
2022/10/29 13:15:21;;;;;;;39.60;9.52;;;;;;;;;;5122263;27;20052;-64
2022/10/29 13:17:50;;;;;;;29.02;8.93;;;;;;;;;;5121054;27;20051;-63
2022/10/29 13:20:31;;;;;;;27.35;9.02;;;;;;;;;;5141072;27;20051;-64
2022/10/29 13:22:58;;;;;;;28.17;10.13;;;;;;;;;;5133009;27;20039;-65
2022/10/29 13:25:47;;;;;;;27.63;10.27;;;;;;;;;;5146263;27;20383;-63
2022/10/29 13:28:13;;;;;;;21.27;7.90;;;;;;;;;;5144201;27;20055;-64
2022/10/29 13:30:41;;;;;;;20.17;8.38;;;;;;;;;;5135198;27;20062;-63
2022/10/29 13:33:28;;;;;;;21.70;9.80;;;;;;;;;;5128852;27;20468;-64
2022/10/29 13:35:55;;;;;;;34.65;8.15;;;;;;;;;;5125048;27;20497;-65
2022/10/29 13:38:34;;;;;;;25.20;8.57;;;;;;;;;;5127623;27;20279;-64
2022/10/29 13:41:06;;;;;;;17.10;8.35;;;;;;;;;;5125590;27;20047;-62
2022/10/29 13:43:32;;;;;;;15.98;7.05;;;;;;;;;;5123703;27;20561;-63
2022/10/29 13:46:16;;;;;;;18.15;8.32;;;;;;;;;;5125033;27;20059;-63
2022/10/29 13:48:44;;;;;;;16.05;8.85;;;;;;;;;;5123333;27;20508;-62
2022/10/29 13:51:13;;;;;;;22.90;8.90;;;;;;;;;;5127651;27;20051;-63
2022/10/29 13:53:50;;;;;;;22.90;9.00;;;;;;;;;;5139651;27;20055;-63
2022/10/29 13:56:21;;;;;;;23.08;9.10;;;;;;;;;;5124552;27;20051;-64
2022/10/29 13:58:49;;;;;;;17.92;7.90;;;;;;;;;;5123161;27;20114;-70
2022/10/29 14:01:17;;;;;;;12.75;7.38;;;;;;;;;;5124421;27;20059;-63
2022/10/29 14:03:52;;;;;;;32.20;8.77;;;;;;;;;;5136801;27;20526;-65
2022/10/29 14:06:23;;;;;;;78.03;13.43;;;;;;;;;;5146155;27;20057;-64
2022/10/29 14:08:57;;;;;;;35.95;10.23;;;;;;;;;;5144763;27;20047;-65
2022/10/29 14:11:25;;;;;;;111.57;19.25;;;;;;;;;;5126403;27;20055;-64
2022/10/29 14:13:53;;;;;;;41.70;10.48;;;;;;;;;;5124016;27;20430;-64
2022/10/29 14:16:23;;;;;;;25.23;9.82;;;;;;;;;;5124674;27;20501;-64
2022/10/29 14:18:49;;;;;;;17.33;9.25;;;;;;;;;;5124671;27;20056;-64
2022/10/29 14:21:29;;;;;;;22.77;9.75;;;;;;;;;;5123662;27;20583;-64
2022/10/29 14:23:55;;;;;;;16.85;9.30;;;;;;;;;;5124464;27;20483;-64
2022/10/29 14:26:23;;;;;;;22.73;13.25;;;;;;;;;;5124731;27;20473;-63
2022/10/29 14:28:50;;;;;;;21.40;10.23;;;;;;;;;;5125760;27;20056;-65
2022/10/29 14:31:23;;;;;;;19.70;10.18;;;;;;;;;;5125054;27;20959;-64
2022/10/29 14:33:53;;;;;;;17.25;10.80;;;;;;;;;;5124129;27;20056;-65
2022/10/29 14:36:28;;;;;;;24.80;11.10;;;;;;;;;;5124436;27;20051;-65
2022/10/29 14:38:57;;;;;;;18.42;9.98;;;;;;;;;;5124437;27;20058;-65
2022/10/29 14:41:24;;;;;;;21.88;9.82;;;;;;;;;;5124709;27;20546;-65